BAW2203 EGKK-MMUN
Flight info
| Callsign | BAW2203 |
|---|---|
| Flight time | N/A |
| Altitude | 36000 |
| Route | IMVUR N63 SAM N19 ADKIK DCT MOPAT DCT LILNO/M082F360 DCT 53N040W 52N050W DCT TUDEP/N0469F360 N526A TOPPS/N0474F400 DCT BGR DCT ENE DCT JFK DCT CYN DCT SBY DCT KEMPR DCT PRONI Q131 WAALT AR17 HIBAC DCT CANOA UB879 NOSAT NOSAT1B |
| Aircraft | B772/H-SDE2E3FGHIJ5LORVWXY/LB1D1 |
Departure
| Time | N/A |
|---|---|
| Airport | London Gatwick Airport (EGKK) |
Arrival
| Time | 2026-04-28 02:19 |
|---|---|
| Airport | Cancún International Airport (MMUN) |
| Time | Latitude | Longitude | Altitude | Speed | Heading |
|---|---|---|---|---|---|
| 2026-04-28 02:00 | 21.97579 | -85.99290 | 12263 ft | 359 kts | 239° |
| 2026-04-28 02:01 | 21.96234 | -86.01540 | 11840 ft | 357 kts | 239° |
| 2026-04-28 02:01 | 21.94886 | -86.03778 | 11401 ft | 354 kts | 239° |
| 2026-04-28 02:01 | 21.93540 | -86.06000 | 10969 ft | 352 kts | 238° |
| 2026-04-28 02:01 | 21.92206 | -86.08197 | 10810 ft | 364 kts | 238° |
| 2026-04-28 02:02 | 21.90758 | -86.10582 | 10622 ft | 388 kts | 238° |
| 2026-04-28 02:02 | 21.89267 | -86.13029 | 10404 ft | 392 kts | 238° |
| 2026-04-28 02:02 | 21.87770 | -86.15479 | 10173 ft | 391 kts | 238° |
| 2026-04-28 02:02 | 21.86278 | -86.17918 | 9946 ft | 389 kts | 238° |
| 2026-04-28 02:03 | 21.84793 | -86.20344 | 9691 ft | 387 kts | 238° |
| 2026-04-28 02:03 | 21.83312 | -86.22764 | 9442 ft | 386 kts | 238° |
| 2026-04-28 02:03 | 21.81841 | -86.25168 | 9191 ft | 384 kts | 238° |
| 2026-04-28 02:03 | 21.80370 | -86.27570 | 8933 ft | 383 kts | 237° |
| 2026-04-28 02:04 | 21.78910 | -86.29953 | 8745 ft | 380 kts | 237° |
| 2026-04-28 02:04 | 21.77460 | -86.32321 | 8528 ft | 378 kts | 237° |
| 2026-04-28 02:04 | 21.76012 | -86.34683 | 8347 ft | 376 kts | 237° |
| 2026-04-28 02:04 | 21.74576 | -86.37024 | 8154 ft | 375 kts | 237° |
| 2026-04-28 02:05 | 21.73140 | -86.39365 | 7959 ft | 374 kts | 237° |
| 2026-04-28 02:05 | 21.71706 | -86.41700 | 7759 ft | 374 kts | 237° |
| 2026-04-28 02:05 | 21.70291 | -86.44004 | 7569 ft | 373 kts | 237° |
| 2026-04-28 02:05 | 21.68864 | -86.46328 | 7391 ft | 372 kts | 237° |
| 2026-04-28 02:06 | 21.67438 | -86.48649 | 7204 ft | 371 kts | 237° |
| 2026-04-28 02:06 | 21.66015 | -86.50963 | 7019 ft | 371 kts | 237° |
| 2026-04-28 02:06 | 21.64592 | -86.53277 | 6827 ft | 370 kts | 237° |
| 2026-04-28 02:06 | 21.63176 | -86.55579 | 6646 ft | 368 kts | 236° |
| 2026-04-28 02:07 | 21.61765 | -86.57869 | 6448 ft | 367 kts | 236° |
| 2026-04-28 02:07 | 21.60351 | -86.60165 | 6251 ft | 367 kts | 236° |
| 2026-04-28 02:07 | 21.58948 | -86.62443 | 6068 ft | 365 kts | 236° |
| 2026-04-28 02:07 | 21.57545 | -86.64721 | 5866 ft | 364 kts | 236° |
| 2026-04-28 02:08 | 21.56144 | -86.66992 | 5672 ft | 364 kts | 236° |
| 2026-04-28 02:08 | 21.54751 | -86.69250 | 5475 ft | 363 kts | 236° |
| 2026-04-28 02:08 | 21.53358 | -86.71507 | 5276 ft | 362 kts | 236° |
| 2026-04-28 02:08 | 21.51968 | -86.73758 | 5083 ft | 360 kts | 235° |
| 2026-04-28 02:09 | 21.50589 | -86.75991 | 4889 ft | 358 kts | 235° |
| 2026-04-28 02:09 | 21.49215 | -86.78215 | 4705 ft | 357 kts | 235° |
| 2026-04-28 02:09 | 21.47840 | -86.80426 | 4482 ft | 350 kts | 233° |
| 2026-04-28 02:09 | 21.46175 | -86.82297 | 4286 ft | 349 kts | 217° |
| 2026-04-28 02:10 | 21.44165 | -86.83820 | 4116 ft | 356 kts | 212° |
| 2026-04-28 02:10 | 21.42087 | -86.85254 | 3923 ft | 352 kts | 211° |
| 2026-04-28 02:10 | 21.40031 | -86.86650 | 3721 ft | 348 kts | 210° |
| 2026-04-28 02:10 | 21.37999 | -86.88030 | 3525 ft | 345 kts | 210° |
| 2026-04-28 02:11 | 21.35972 | -86.89405 | 3336 ft | 342 kts | 211° |
| 2026-04-28 02:11 | 21.34019 | -86.90730 | 3129 ft | 330 kts | 210° |
| 2026-04-28 02:11 | 21.32116 | -86.92020 | 2966 ft | 317 kts | 210° |
| 2026-04-28 02:11 | 21.30305 | -86.93254 | 2973 ft | 300 kts | 210° |
| 2026-04-28 02:12 | 21.28560 | -86.94448 | 2796 ft | 292 kts | 210° |
| 2026-04-28 02:12 | 21.26874 | -86.95607 | 2608 ft | 285 kts | 210° |
| 2026-04-28 02:12 | 21.25230 | -86.96746 | 2396 ft | 278 kts | 210° |
| 2026-04-28 02:12 | 21.23624 | -86.97865 | 2196 ft | 272 kts | 210° |
| 2026-04-28 02:13 | 21.22065 | -86.98962 | 2088 ft | 262 kts | 210° |
| 2026-04-28 02:13 | 21.20552 | -86.99944 | 1984 ft | 245 kts | 200° |
| 2026-04-28 02:13 | 21.18989 | -87.00547 | 1894 ft | 233 kts | 194° |
| 2026-04-28 02:13 | 21.17469 | -87.01054 | 1814 ft | 225 kts | 193° |
| 2026-04-28 02:14 | 21.16002 | -87.01539 | 1722 ft | 216 kts | 193° |
| 2026-04-28 02:14 | 21.14621 | -87.01994 | 1692 ft | 195 kts | 190° |
| 2026-04-28 02:14 | 21.13396 | -87.01957 | 1569 ft | 167 kts | 150° |
| 2026-04-28 02:14 | 21.12592 | -87.01206 | 1545 ft | 146 kts | 129° |
| 2026-04-28 02:15 | 21.11360 | -86.99724 | 1513 ft | 126 kts | 129° |
| 2026-04-28 02:15 | 21.10786 | -86.98999 | 1511 ft | 129 kts | 127° |
| 2026-04-28 02:15 | 21.10247 | -86.98227 | 1499 ft | 130 kts | 124° |
| 2026-04-28 02:16 | 21.09731 | -86.97429 | 1506 ft | 131 kts | 123° |
| 2026-04-28 02:16 | 21.09224 | -86.96625 | 1506 ft | 130 kts | 122° |
| 2026-04-28 02:16 | 21.08720 | -86.95818 | 1490 ft | 131 kts | 122° |
| 2026-04-28 02:16 | 21.08216 | -86.95009 | 1316 ft | 130 kts | 122° |
| 2026-04-28 02:17 | 21.07723 | -86.94218 | 1129 ft | 125 kts | 121° |
| 2026-04-28 02:17 | 21.07238 | -86.93437 | 978 ft | 125 kts | 121° |
| 2026-04-28 02:17 | 21.06754 | -86.92661 | 821 ft | 124 kts | 122° |
| 2026-04-28 02:17 | 21.06263 | -86.91873 | 663 ft | 130 kts | 124° |
| 2026-04-28 02:18 | 21.05757 | -86.91063 | 489 ft | 131 kts | 123° |
| 2026-04-28 02:18 | 21.05255 | -86.90241 | 331 ft | 131 kts | 124° |
| 2026-04-28 02:18 | 21.04742 | -86.89434 | 174 ft | 132 kts | 125° |
| 2026-04-28 02:18 | 21.04235 | -86.88624 | 41 ft | 130 kts | 124° |
| 2026-04-28 02:19 | 21.03787 | -86.87904 | 26 ft | 101 kts | 123° |
| 2026-04-28 02:19 | 21.03606 | -86.87546 | 27 ft | 33 kts | 95° |
| 2026-04-28 02:19 | 21.03570 | -86.87267 | 29 ft | 38 kts | 111° |
| 2026-04-28 02:19 | 21.03437 | -86.87037 | 28 ft | 35 kts | 123° |
| 2026-04-28 02:20 | 21.03345 | -86.86853 | 25 ft | 17 kts | 72° |
| 2026-04-28 02:20 | 21.03428 | -86.86785 | 25 ft | 15 kts | 33° |
| 2026-04-28 02:20 | 21.03517 | -86.86724 | 26 ft | 15 kts | 32° |
| 2026-04-28 02:20 | 21.03535 | -86.86711 | 27 ft | 0 kts | 34° |